sensor_id;sensor_type;location;lat;lon;timestamp;P1;durP1;ratioP1;P2;durP2;ratioP2
20110;SDS011;10216;42.658;23.248;2023-04-03T00:01:12;1.20;;;1.00;;
20110;SDS011;10216;42.658;23.248;2023-04-03T00:03:37;0.80;;;0.80;;
20110;SDS011;10216;42.658;23.248;2023-04-03T00:06:03;1.07;;;0.97;;
20110;SDS011;10216;42.658;23.248;2023-04-03T00:08:28;13.47;;;1.30;;
20110;SDS011;10216;42.658;23.248;2023-04-03T00:10:56;10.70;;;1.23;;
20110;SDS011;10216;42.658;23.248;2023-04-03T00:13:21;0.80;;;0.70;;
20110;SDS011;10216;42.658;23.248;2023-04-03T00:15:46;0.80;;;0.67;;
20110;SDS011;10216;42.658;23.248;2023-04-03T00:18:11;0.80;;;0.80;;
20110;SDS011;10216;42.658;23.248;2023-04-03T00:20:37;12.73;;;1.40;;
20110;SDS011;10216;42.658;23.248;2023-04-03T00:23:02;6.17;;;1.00;;
20110;SDS011;10216;42.658;23.248;2023-04-03T00:25:27;2.10;;;0.90;;
20110;SDS011;10216;42.658;23.248;2023-04-03T00:27:53;6.63;;;1.17;;
20110;SDS011;10216;42.658;23.248;2023-04-03T00:30:20;11.30;;;0.97;;
20110;SDS011;10216;42.658;23.248;2023-04-03T00:32:47;5.60;;;0.83;;
20110;SDS011;10216;42.658;23.248;2023-04-03T00:35:12;4.67;;;0.97;;
20110;SDS011;10216;42.658;23.248;2023-04-03T00:37:40;3.17;;;0.73;;
20110;SDS011;10216;42.658;23.248;2023-04-03T00:40:06;1.97;;;0.80;;
20110;SDS011;10216;42.658;23.248;2023-04-03T00:42:31;0.70;;;0.70;;
20110;SDS011;10216;42.658;23.248;2023-04-03T00:47:21;0.40;;;0.40;;
20110;SDS011;10216;42.658;23.248;2023-04-03T00:49:47;14.93;;;0.70;;
20110;SDS011;10216;42.658;23.248;2023-04-03T00:52:15;8.00;;;1.20;;
20110;SDS011;10216;42.658;23.248;2023-04-03T00:54:41;0.40;;;0.40;;
20110;SDS011;10216;42.658;23.248;2023-04-03T00:57:07;3.30;;;0.50;;
20110;SDS011;10216;42.658;23.248;2023-04-03T00:59:34;0.60;;;0.60;;
20110;SDS011;10216;42.658;23.248;2023-04-03T01:02:00;6.17;;;0.73;;
20110;SDS011;10216;42.658;23.248;2023-04-03T01:04:29;4.20;;;0.50;;
20110;SDS011;10216;42.658;23.248;2023-04-03T01:06:56;15.90;;;0.83;;
20110;SDS011;10216;42.658;23.248;2023-04-03T01:09:23;1.30;;;0.47;;
20110;SDS011;10216;42.658;23.248;2023-04-03T01:11:48;33.87;;;1.20;;
20110;SDS011;10216;42.658;23.248;2023-04-03T01:14:14;1.27;;;0.53;;
20110;SDS011;10216;42.658;23.248;2023-04-03T01:16:39;2.20;;;0.63;;
20110;SDS011;10216;42.658;23.248;2023-04-03T01:19:06;9.07;;;0.70;;
20110;SDS011;10216;42.658;23.248;2023-04-03T01:21:53;0.60;;;0.60;;
20110;SDS011;10216;42.658;23.248;2023-04-03T01:26:49;2.57;;;0.40;;
20110;SDS011;10216;42.658;23.248;2023-04-03T01:29:15;0.20;;;0.20;;
20110;SDS011;10216;42.658;23.248;2023-04-03T01:34:06;0.40;;;0.40;;
20110;SDS011;10216;42.658;23.248;2023-04-03T01:36:31;0.10;;;0.10;;
20110;SDS011;10216;42.658;23.248;2023-04-03T01:38:57;0.20;;;0.20;;
20110;SDS011;10216;42.658;23.248;2023-04-03T01:41:23;0.20;;;0.20;;
20110;SDS011;10216;42.658;23.248;2023-04-03T01:43:48;0.30;;;0.30;;
20110;SDS011;10216;42.658;23.248;2023-04-03T01:46:15;0.20;;;0.20;;
20110;SDS011;10216;42.658;23.248;2023-04-03T01:48:40;0.20;;;0.20;;
20110;SDS011;10216;42.658;23.248;2023-04-03T01:51:05;0.20;;;0.20;;
20110;SDS011;10216;42.658;23.248;2023-04-03T01:53:31;0.23;;;0.23;;
20110;SDS011;10216;42.658;23.248;2023-04-03T01:55:56;0.20;;;0.20;;
20110;SDS011;10216;42.658;23.248;2023-04-03T01:58:21;0.20;;;0.20;;
20110;SDS011;10216;42.658;23.248;2023-04-03T02:00:46;0.20;;;0.20;;
20110;SDS011;10216;42.658;23.248;2023-04-03T02:03:12;0.17;;;0.17;;
20110;SDS011;10216;42.658;23.248;2023-04-03T02:05:38;0.30;;;0.30;;
20110;SDS011;10216;42.658;23.248;2023-04-03T02:08:03;0.20;;;0.20;;
20110;SDS011;10216;42.658;23.248;2023-04-03T02:10:28;0.17;;;0.17;;
20110;SDS011;10216;42.658;23.248;2023-04-03T02:12:54;0.20;;;0.20;;
20110;SDS011;10216;42.658;23.248;2023-04-03T02:15:19;1.27;;;1.03;;
20110;SDS011;10216;42.658;23.248;2023-04-03T02:17:44;0.40;;;0.40;;
20110;SDS011;10216;42.658;23.248;2023-04-03T02:20:10;0.27;;;0.27;;
20110;SDS011;10216;42.658;23.248;2023-04-03T02:22:35;0.20;;;0.20;;
20110;SDS011;10216;42.658;23.248;2023-04-03T02:25:00;0.30;;;0.30;;
20110;SDS011;10216;42.658;23.248;2023-04-03T02:27:26;0.10;;;0.10;;
20110;SDS011;10216;42.658;23.248;2023-04-03T02:29:51;0.20;;;0.20;;
20110;SDS011;10216;42.658;23.248;2023-04-03T02:32:16;0.20;;;0.20;;
20110;SDS011;10216;42.658;23.248;2023-04-03T02:34:41;0.10;;;0.10;;
20110;SDS011;10216;42.658;23.248;2023-04-03T02:37:07;0.30;;;0.30;;
20110;SDS011;10216;42.658;23.248;2023-04-03T02:39:32;0.30;;;0.30;;
20110;SDS011;10216;42.658;23.248;2023-04-03T02:41:57;0.30;;;0.30;;
20110;SDS011;10216;42.658;23.248;2023-04-03T02:44:22;0.30;;;0.30;;
20110;SDS011;10216;42.658;23.248;2023-04-03T02:46:48;0.30;;;0.30;;
20110;SDS011;10216;42.658;23.248;2023-04-03T02:49:13;0.20;;;0.20;;
20110;SDS011;10216;42.658;23.248;2023-04-03T02:51:39;0.20;;;0.20;;
20110;SDS011;10216;42.658;23.248;2023-04-03T02:54:04;0.30;;;0.30;;
20110;SDS011;10216;42.658;23.248;2023-04-03T02:56:29;0.20;;;0.20;;
20110;SDS011;10216;42.658;23.248;2023-04-03T02:58:55;0.57;;;0.30;;
20110;SDS011;10216;42.658;23.248;2023-04-03T03:01:20;0.20;;;0.20;;
20110;SDS011;10216;42.658;23.248;2023-04-03T03:03:45;0.20;;;0.20;;
20110;SDS011;10216;42.658;23.248;2023-04-03T03:06:12;0.40;;;0.40;;
20110;SDS011;10216;42.658;23.248;2023-04-03T03:08:37;0.23;;;0.20;;
20110;SDS011;10216;42.658;23.248;2023-04-03T03:11:03;0.33;;;0.23;;
20110;SDS011;10216;42.658;23.248;2023-04-03T03:13:28;0.20;;;0.20;;
20110;SDS011;10216;42.658;23.248;2023-04-03T03:15:54;0.33;;;0.30;;
20110;SDS011;10216;42.658;23.248;2023-04-03T03:18:19;0.10;;;0.10;;
20110;SDS011;10216;42.658;23.248;2023-04-03T03:20:44;0.50;;;0.20;;
20110;SDS011;10216;42.658;23.248;2023-04-03T03:23:10;0.30;;;0.30;;
20110;SDS011;10216;42.658;23.248;2023-04-03T03:25:38;0.10;;;0.10;;
20110;SDS011;10216;42.658;23.248;2023-04-03T03:28:04;0.40;;;0.40;;
20110;SDS011;10216;42.658;23.248;2023-04-03T03:30:29;0.30;;;0.30;;
20110;SDS011;10216;42.658;23.248;2023-04-03T03:32:54;0.20;;;0.20;;
20110;SDS011;10216;42.658;23.248;2023-04-03T03:35:19;0.30;;;0.30;;
20110;SDS011;10216;42.658;23.248;2023-04-03T03:37:45;0.30;;;0.30;;
20110;SDS011;10216;42.658;23.248;2023-04-03T03:40:10;0.83;;;0.67;;
20110;SDS011;10216;42.658;23.248;2023-04-03T03:42:37;0.33;;;0.33;;
20110;SDS011;10216;42.658;23.248;2023-04-03T03:45:02;0.57;;;0.37;;
20110;SDS011;10216;42.658;23.248;2023-04-03T03:47:28;0.53;;;0.37;;
20110;SDS011;10216;42.658;23.248;2023-04-03T03:49:53;0.23;;;0.23;;
20110;SDS011;10216;42.658;23.248;2023-04-03T03:52:18;0.40;;;0.40;;
20110;SDS011;10216;42.658;23.248;2023-04-03T03:54:43;0.93;;;0.80;;
20110;SDS011;10216;42.658;23.248;2023-04-03T03:57:09;0.30;;;0.30;;
20110;SDS011;10216;42.658;23.248;2023-04-03T03:59:34;0.23;;;0.23;;
20110;SDS011;10216;42.658;23.248;2023-04-03T04:02:00;0.30;;;0.30;;
20110;SDS011;10216;42.658;23.248;2023-04-03T04:04:25;2.23;;;1.20;;
20110;SDS011;10216;42.658;23.248;2023-04-03T04:06:50;0.50;;;0.43;;
20110;SDS011;10216;42.658;23.248;2023-04-03T04:09:16;0.70;;;0.70;;
20110;SDS011;10216;42.658;23.248;2023-04-03T04:11:42;1.00;;;0.90;;
20110;SDS011;10216;42.658;23.248;2023-04-03T04:14:07;0.60;;;0.60;;
20110;SDS011;10216;42.658;23.248;2023-04-03T04:16:32;0.50;;;0.40;;
20110;SDS011;10216;42.658;23.248;2023-04-03T04:18:57;0.50;;;0.30;;
20110;SDS011;10216;42.658;23.248;2023-04-03T04:21:23;0.30;;;0.30;;
20110;SDS011;10216;42.658;23.248;2023-04-03T04:23:49;0.20;;;0.20;;
20110;SDS011;10216;42.658;23.248;2023-04-03T04:26:14;0.40;;;0.40;;
20110;SDS011;10216;42.658;23.248;2023-04-03T04:28:40;0.30;;;0.30;;
20110;SDS011;10216;42.658;23.248;2023-04-03T04:31:05;0.30;;;0.30;;
20110;SDS011;10216;42.658;23.248;2023-04-03T04:33:30;0.30;;;0.30;;
20110;SDS011;10216;42.658;23.248;2023-04-03T04:35:55;0.30;;;0.30;;
20110;SDS011;10216;42.658;23.248;2023-04-03T04:38:21;0.30;;;0.30;;
20110;SDS011;10216;42.658;23.248;2023-04-03T04:40:46;1.40;;;0.60;;
20110;SDS011;10216;42.658;23.248;2023-04-03T04:43:12;1.40;;;0.40;;
20110;SDS011;10216;42.658;23.248;2023-04-03T04:45:39;0.70;;;0.70;;
20110;SDS011;10216;42.658;23.248;2023-04-03T04:48:04;1.47;;;1.03;;
20110;SDS011;10216;42.658;23.248;2023-04-03T04:50:30;1.17;;;0.60;;
20110;SDS011;10216;42.658;23.248;2023-04-03T04:52:55;1.40;;;1.30;;
20110;SDS011;10216;42.658;23.248;2023-04-03T04:55:20;0.93;;;0.70;;
20110;SDS011;10216;42.658;23.248;2023-04-03T04:57:46;2.93;;;0.50;;
20110;SDS011;10216;42.658;23.248;2023-04-03T05:00:12;0.70;;;0.70;;
20110;SDS011;10216;42.658;23.248;2023-04-03T05:02:38;0.50;;;0.50;;
20110;SDS011;10216;42.658;23.248;2023-04-03T05:05:03;1.30;;;1.00;;
20110;SDS011;10216;42.658;23.248;2023-04-03T05:07:28;0.60;;;0.60;;
20110;SDS011;10216;42.658;23.248;2023-04-03T05:09:54;0.50;;;0.50;;
20110;SDS011;10216;42.658;23.248;2023-04-03T05:12:19;0.33;;;0.33;;
20110;SDS011;10216;42.658;23.248;2023-04-03T05:14:46;1.60;;;0.40;;
20110;SDS011;10216;42.658;23.248;2023-04-03T05:17:11;0.70;;;0.70;;
20110;SDS011;10216;42.658;23.248;2023-04-03T05:19:36;0.30;;;0.30;;
20110;SDS011;10216;42.658;23.248;2023-04-03T05:22:02;0.30;;;0.30;;
20110;SDS011;10216;42.658;23.248;2023-04-03T05:24:27;0.40;;;0.40;;
20110;SDS011;10216;42.658;23.248;2023-04-03T05:26:52;0.37;;;0.37;;
20110;SDS011;10216;42.658;23.248;2023-04-03T05:29:18;0.50;;;0.50;;
20110;SDS011;10216;42.658;23.248;2023-04-03T05:31:43;0.50;;;0.50;;
20110;SDS011;10216;42.658;23.248;2023-04-03T05:34:08;0.50;;;0.50;;
20110;SDS011;10216;42.658;23.248;2023-04-03T05:36:33;0.77;;;0.77;;
20110;SDS011;10216;42.658;23.248;2023-04-03T05:38:59;13.97;;;7.20;;
20110;SDS011;10216;42.658;23.248;2023-04-03T05:41:24;7.13;;;3.40;;
20110;SDS011;10216;42.658;23.248;2023-04-03T05:43:49;2.97;;;2.27;;
20110;SDS011;10216;42.658;23.248;2023-04-03T05:46:16;3.30;;;2.10;;
20110;SDS011;10216;42.658;23.248;2023-04-03T05:48:42;4.83;;;2.33;;
20110;SDS011;10216;42.658;23.248;2023-04-03T05:51:09;2.70;;;1.93;;
20110;SDS011;10216;42.658;23.248;2023-04-03T05:53:40;5.20;;;2.67;;
20110;SDS011;10216;42.658;23.248;2023-04-03T05:56:06;2.70;;;2.03;;
20110;SDS011;10216;42.658;23.248;2023-04-03T05:58:31;3.33;;;2.37;;
20110;SDS011;10216;42.658;23.248;2023-04-03T06:00:57;2.83;;;1.67;;
20110;SDS011;10216;42.658;23.248;2023-04-03T06:03:22;4.07;;;3.03;;
20110;SDS011;10216;42.658;23.248;2023-04-03T06:05:47;9.07;;;4.70;;
20110;SDS011;10216;42.658;23.248;2023-04-03T06:08:12;3.50;;;2.27;;
20110;SDS011;10216;42.658;23.248;2023-04-03T06:10:39;3.47;;;2.73;;
20110;SDS011;10216;42.658;23.248;2023-04-03T06:13:05;8.40;;;2.63;;
20110;SDS011;10216;42.658;23.248;2023-04-03T06:15:31;3.10;;;2.43;;
20110;SDS011;10216;42.658;23.248;2023-04-03T06:17:56;3.53;;;2.93;;
20110;SDS011;10216;42.658;23.248;2023-04-03T06:20:21;3.17;;;2.53;;
20110;SDS011;10216;42.658;23.248;2023-04-03T06:22:47;3.73;;;2.30;;
20110;SDS011;10216;42.658;23.248;2023-04-03T06:25:12;4.17;;;2.50;;
20110;SDS011;10216;42.658;23.248;2023-04-03T06:27:37;3.57;;;2.43;;
20110;SDS011;10216;42.658;23.248;2023-04-03T06:30:03;4.57;;;2.97;;
20110;SDS011;10216;42.658;23.248;2023-04-03T06:32:28;2.70;;;2.50;;
20110;SDS011;10216;42.658;23.248;2023-04-03T06:34:54;4.00;;;3.00;;
20110;SDS011;10216;42.658;23.248;2023-04-03T06:37:21;3.47;;;2.70;;
20110;SDS011;10216;42.658;23.248;2023-04-03T06:39:46;2.87;;;1.93;;
20110;SDS011;10216;42.658;23.248;2023-04-03T06:42:12;5.00;;;2.37;;
20110;SDS011;10216;42.658;23.248;2023-04-03T06:44:38;3.97;;;2.53;;
20110;SDS011;10216;42.658;23.248;2023-04-03T06:47:03;2.80;;;2.00;;
20110;SDS011;10216;42.658;23.248;2023-04-03T06:49:28;4.77;;;3.13;;
20110;SDS011;10216;42.658;23.248;2023-04-03T06:51:54;3.33;;;2.90;;
20110;SDS011;10216;42.658;23.248;2023-04-03T06:54:19;2.60;;;2.00;;
20110;SDS011;10216;42.658;23.248;2023-04-03T06:56:44;1.77;;;1.50;;
20110;SDS011;10216;42.658;23.248;2023-04-03T06:59:10;2.90;;;2.20;;
20110;SDS011;10216;42.658;23.248;2023-04-03T07:01:37;2.17;;;1.87;;
20110;SDS011;10216;42.658;23.248;2023-04-03T07:04:03;2.07;;;1.77;;
20110;SDS011;10216;42.658;23.248;2023-04-03T07:06:28;2.43;;;1.53;;
20110;SDS011;10216;42.658;23.248;2023-04-03T07:08:54;1.43;;;1.27;;
20110;SDS011;10216;42.658;23.248;2023-04-03T07:11:19;1.40;;;1.27;;
20110;SDS011;10216;42.658;23.248;2023-04-03T07:13:45;3.37;;;1.40;;
20110;SDS011;10216;42.658;23.248;2023-04-03T07:16:10;2.43;;;1.30;;
20110;SDS011;10216;42.658;23.248;2023-04-03T07:18:36;2.53;;;1.47;;
20110;SDS011;10216;42.658;23.248;2023-04-03T07:21:01;2.13;;;1.40;;
20110;SDS011;10216;42.658;23.248;2023-04-03T07:23:27;2.83;;;1.60;;
20110;SDS011;10216;42.658;23.248;2023-04-03T07:25:52;2.03;;;1.00;;
20110;SDS011;10216;42.658;23.248;2023-04-03T07:28:18;3.07;;;1.57;;
20110;SDS011;10216;42.658;23.248;2023-04-03T07:30:48;1.13;;;0.90;;
20110;SDS011;10216;42.658;23.248;2023-04-03T07:33:16;1.53;;;1.20;;
20110;SDS011;10216;42.658;23.248;2023-04-03T07:35:41;0.70;;;0.60;;
20110;SDS011;10216;42.658;23.248;2023-04-03T07:38:07;0.77;;;0.77;;
20110;SDS011;10216;42.658;23.248;2023-04-03T07:40:33;0.87;;;0.87;;
20110;SDS011;10216;42.658;23.248;2023-04-03T07:42:58;1.37;;;1.27;;
20110;SDS011;10216;42.658;23.248;2023-04-03T07:45:24;1.40;;;1.30;;
20110;SDS011;10216;42.658;23.248;2023-04-03T07:47:50;2.00;;;1.80;;
20110;SDS011;10216;42.658;23.248;2023-04-03T07:50:15;2.47;;;1.67;;
20110;SDS011;10216;42.658;23.248;2023-04-03T07:52:41;2.03;;;1.83;;
20110;SDS011;10216;42.658;23.248;2023-04-03T07:55:06;3.10;;;1.67;;
20110;SDS011;10216;42.658;23.248;2023-04-03T07:57:31;2.10;;;1.53;;
20110;SDS011;10216;42.658;23.248;2023-04-03T07:59:57;2.23;;;1.80;;
20110;SDS011;10216;42.658;23.248;2023-04-03T08:02:22;1.50;;;1.13;;
20110;SDS011;10216;42.658;23.248;2023-04-03T08:04:47;2.00;;;1.30;;
20110;SDS011;10216;42.658;23.248;2023-04-03T08:07:12;1.97;;;1.10;;
20110;SDS011;10216;42.658;23.248;2023-04-03T08:09:38;3.50;;;1.57;;
20110;SDS011;10216;42.658;23.248;2023-04-03T08:12:03;3.10;;;1.70;;
20110;SDS011;10216;42.658;23.248;2023-04-03T08:14:30;1.13;;;1.00;;
20110;SDS011;10216;42.658;23.248;2023-04-03T08:16:55;1.43;;;1.27;;
20110;SDS011;10216;42.658;23.248;2023-04-03T08:19:20;1.70;;;0.90;;
20110;SDS011;10216;42.658;23.248;2023-04-03T08:21:46;1.27;;;0.97;;
20110;SDS011;10216;42.658;23.248;2023-04-03T08:24:11;1.70;;;1.20;;
20110;SDS011;10216;42.658;23.248;2023-04-03T08:26:37;1.37;;;1.27;;
20110;SDS011;10216;42.658;23.248;2023-04-03T08:29:03;1.50;;;1.20;;
20110;SDS011;10216;42.658;23.248;2023-04-03T08:31:28;1.00;;;1.00;;
20110;SDS011;10216;42.658;23.248;2023-04-03T08:33:53;1.53;;;1.03;;
20110;SDS011;10216;42.658;23.248;2023-04-03T08:36:20;2.67;;;1.70;;
20110;SDS011;10216;42.658;23.248;2023-04-03T08:38:46;1.40;;;1.30;;
20110;SDS011;10216;42.658;23.248;2023-04-03T08:46:13;3.23;;;1.80;;
20110;SDS011;10216;42.658;23.248;2023-04-03T08:48:41;1.43;;;1.33;;
20110;SDS011;10216;42.658;23.248;2023-04-03T08:51:15;1.40;;;1.30;;
20110;SDS011;10216;42.658;23.248;2023-04-03T08:53:50;1.90;;;1.50;;
20110;SDS011;10216;42.658;23.248;2023-04-03T08:56:19;1.60;;;1.50;;
20110;SDS011;10216;42.658;23.248;2023-04-03T08:58:47;1.80;;;1.60;;
20110;SDS011;10216;42.658;23.248;2023-04-03T09:01:20;2.17;;;1.87;;
20110;SDS011;10216;42.658;23.248;2023-04-03T09:03:46;2.00;;;1.80;;
20110;SDS011;10216;42.658;23.248;2023-04-03T09:08:44;1.87;;;1.70;;
20110;SDS011;10216;42.658;23.248;2023-04-03T09:13:49;2.10;;;1.90;;
20110;SDS011;10216;42.658;23.248;2023-04-03T09:16:33;2.43;;;2.03;;
20110;SDS011;10216;42.658;23.248;2023-04-03T09:19:21;5.17;;;2.63;;
20110;SDS011;10216;42.658;23.248;2023-04-03T09:21:48;3.23;;;2.90;;
20110;SDS011;10216;42.658;23.248;2023-04-03T09:24:13;4.63;;;3.33;;
20110;SDS011;10216;42.658;23.248;2023-04-03T09:26:48;5.80;;;3.13;;
20110;SDS011;10216;42.658;23.248;2023-04-03T09:29:20;4.70;;;3.40;;
20110;SDS011;10216;42.658;23.248;2023-04-03T09:31:48;5.47;;;3.47;;
20110;SDS011;10216;42.658;23.248;2023-04-03T09:36:49;4.67;;;3.53;;
20110;SDS011;10216;42.658;23.248;2023-04-03T09:39:25;4.17;;;2.70;;
20110;SDS011;10216;42.658;23.248;2023-04-03T09:42:04;2.73;;;2.20;;
20110;SDS011;10216;42.658;23.248;2023-04-03T09:44:31;1.70;;;1.30;;
20110;SDS011;10216;42.658;23.248;2023-04-03T09:46:56;1.40;;;1.30;;
20110;SDS011;10216;42.658;23.248;2023-04-03T09:49:21;1.00;;;0.90;;
20110;SDS011;10216;42.658;23.248;2023-04-03T09:51:47;1.07;;;0.73;;
20110;SDS011;10216;42.658;23.248;2023-04-03T09:54:25;1.00;;;0.80;;
20110;SDS011;10216;42.658;23.248;2023-04-03T09:56:52;0.60;;;0.60;;
20110;SDS011;10216;42.658;23.248;2023-04-03T09:59:18;0.60;;;0.40;;
20110;SDS011;10216;42.658;23.248;2023-04-03T10:01:56;1.43;;;0.60;;
20110;SDS011;10216;42.658;23.248;2023-04-03T10:04:22;0.30;;;0.30;;
20110;SDS011;10216;42.658;23.248;2023-04-03T10:06:49;1.13;;;0.73;;
20110;SDS011;10216;42.658;23.248;2023-04-03T10:09:26;0.77;;;0.67;;
20110;SDS011;10216;42.658;23.248;2023-04-03T10:12:04;0.50;;;0.50;;
20110;SDS011;10216;42.658;23.248;2023-04-03T10:15:12;0.60;;;0.60;;
20110;SDS011;10216;42.658;23.248;2023-04-03T10:38:26;0.80;;;0.80;;
20110;SDS011;10216;42.658;23.248;2023-04-03T10:40:57;0.50;;;0.50;;
20110;SDS011;10216;42.658;23.248;2023-04-03T10:43:47;1.57;;;0.70;;
20110;SDS011;10216;42.658;23.248;2023-04-03T10:51:29;0.70;;;0.70;;
20110;SDS011;10216;42.658;23.248;2023-04-03T10:58:53;0.57;;;0.57;;
20110;SDS011;10216;42.658;23.248;2023-04-03T11:01:20;0.60;;;0.60;;
20110;SDS011;10216;42.658;23.248;2023-04-03T11:03:48;3.03;;;0.70;;
20110;SDS011;10216;42.658;23.248;2023-04-03T11:06:15;0.70;;;0.57;;
20110;SDS011;10216;42.658;23.248;2023-04-03T11:08:45;0.53;;;0.53;;
20110;SDS011;10216;42.658;23.248;2023-04-03T11:11:15;0.53;;;0.50;;
20110;SDS011;10216;42.658;23.248;2023-04-03T11:13:43;0.83;;;0.70;;
20110;SDS011;10216;42.658;23.248;2023-04-03T11:16:12;0.80;;;0.80;;
20110;SDS011;10216;42.658;23.248;2023-04-03T11:18:42;0.60;;;0.60;;
20110;SDS011;10216;42.658;23.248;2023-04-03T11:23:35;1.57;;;0.47;;
20110;SDS011;10216;42.658;23.248;2023-04-03T11:26:08;0.60;;;0.60;;
20110;SDS011;10216;42.658;23.248;2023-04-03T11:28:35;0.87;;;0.70;;
20110;SDS011;10216;42.658;23.248;2023-04-03T11:31:15;0.70;;;0.70;;
20110;SDS011;10216;42.658;23.248;2023-04-03T11:34:05;0.90;;;0.87;;
20110;SDS011;10216;42.658;23.248;2023-04-03T11:36:33;1.67;;;0.97;;
20110;SDS011;10216;42.658;23.248;2023-04-03T11:39:14;0.90;;;0.70;;
20110;SDS011;10216;42.658;23.248;2023-04-03T11:41:40;1.63;;;0.97;;
20110;SDS011;10216;42.658;23.248;2023-04-03T11:44:23;0.73;;;0.60;;
20110;SDS011;10216;42.658;23.248;2023-04-03T11:52:01;1.27;;;1.00;;
20110;SDS011;10216;42.658;23.248;2023-04-03T11:54:42;1.30;;;1.03;;
20110;SDS011;10216;42.658;23.248;2023-04-03T11:59:53;0.90;;;0.90;;
20110;SDS011;10216;42.658;23.248;2023-04-03T12:02:35;0.77;;;0.77;;
20110;SDS011;10216;42.658;23.248;2023-04-03T12:07:52;2.17;;;1.67;;
20110;SDS011;10216;42.658;23.248;2023-04-03T12:10:30;2.00;;;1.33;;
20110;SDS011;10216;42.658;23.248;2023-04-03T12:12:56;1.43;;;1.33;;
20110;SDS011;10216;42.658;23.248;2023-04-03T12:15:25;2.73;;;1.90;;
20110;SDS011;10216;42.658;23.248;2023-04-03T12:17:51;1.80;;;1.50;;
20110;SDS011;10216;42.658;23.248;2023-04-03T12:23:08;3.27;;;1.20;;
20110;SDS011;10216;42.658;23.248;2023-04-03T12:25:47;2.23;;;1.17;;
20110;SDS011;10216;42.658;23.248;2023-04-03T12:28:14;1.83;;;1.40;;
20110;SDS011;10216;42.658;23.248;2023-04-03T12:30:39;1.17;;;1.00;;
20110;SDS011;10216;42.658;23.248;2023-04-03T12:48:26;0.87;;;0.87;;
20110;SDS011;10216;42.658;23.248;2023-04-03T12:50:52;2.47;;;1.53;;
20110;SDS011;10216;42.658;23.248;2023-04-03T12:53:19;3.10;;;2.40;;
20110;SDS011;10216;42.658;23.248;2023-04-03T12:55:46;1.80;;;1.67;;
20110;SDS011;10216;42.658;23.248;2023-04-03T12:58:15;3.17;;;2.20;;
20110;SDS011;10216;42.658;23.248;2023-04-03T13:00:42;2.17;;;1.80;;
20110;SDS011;10216;42.658;23.248;2023-04-03T13:03:17;2.90;;;2.57;;
20110;SDS011;10216;42.658;23.248;2023-04-03T13:05:46;2.07;;;1.97;;
20110;SDS011;10216;42.658;23.248;2023-04-03T13:08:12;1.43;;;1.33;;
20110;SDS011;10216;42.658;23.248;2023-04-03T13:10:43;1.00;;;1.00;;
20110;SDS011;10216;42.658;23.248;2023-04-03T13:13:10;2.03;;;1.33;;
20110;SDS011;10216;42.658;23.248;2023-04-03T13:15:43;1.10;;;1.03;;
20110;SDS011;10216;42.658;23.248;2023-04-03T13:18:29;1.33;;;1.23;;
20110;SDS011;10216;42.658;23.248;2023-04-03T13:20:57;1.10;;;1.10;;
20110;SDS011;10216;42.658;23.248;2023-04-03T13:23:23;3.43;;;2.40;;
20110;SDS011;10216;42.658;23.248;2023-04-03T13:25:49;1.63;;;1.53;;
20110;SDS011;10216;42.658;23.248;2023-04-03T13:28:17;1.37;;;1.27;;
20110;SDS011;10216;42.658;23.248;2023-04-03T13:33:27;3.57;;;2.17;;
20110;SDS011;10216;42.658;23.248;2023-04-03T13:36:16;2.13;;;1.93;;
20110;SDS011;10216;42.658;23.248;2023-04-03T13:38:41;3.00;;;2.17;;
20110;SDS011;10216;42.658;23.248;2023-04-03T13:43:51;10.30;;;4.83;;
20110;SDS011;10216;42.658;23.248;2023-04-03T13:48:49;2.20;;;2.00;;
20110;SDS011;10216;42.658;23.248;2023-04-03T13:51:33;2.43;;;2.23;;
20110;SDS011;10216;42.658;23.248;2023-04-03T13:54:13;2.93;;;2.10;;
20110;SDS011;10216;42.658;23.248;2023-04-03T13:56:41;2.17;;;1.97;;
20110;SDS011;10216;42.658;23.248;2023-04-03T14:01:42;3.63;;;2.00;;
20110;SDS011;10216;42.658;23.248;2023-04-03T14:04:18;2.57;;;2.03;;
20110;SDS011;10216;42.658;23.248;2023-04-03T14:06:44;5.60;;;3.10;;
20110;SDS011;10216;42.658;23.248;2023-04-03T14:09:10;6.87;;;2.67;;
20110;SDS011;10216;42.658;23.248;2023-04-03T14:11:35;1.73;;;1.10;;
20110;SDS011;10216;42.658;23.248;2023-04-03T14:14:02;3.27;;;2.17;;
20110;SDS011;10216;42.658;23.248;2023-04-03T14:16:30;2.37;;;1.87;;
20110;SDS011;10216;42.658;23.248;2023-04-03T14:18:56;3.20;;;2.43;;
20110;SDS011;10216;42.658;23.248;2023-04-03T14:21:22;2.50;;;1.43;;
20110;SDS011;10216;42.658;23.248;2023-04-03T14:23:47;4.30;;;2.57;;
20110;SDS011;10216;42.658;23.248;2023-04-03T14:26:13;3.80;;;2.77;;
20110;SDS011;10216;42.658;23.248;2023-04-03T14:28:41;0.63;;;0.63;;
20110;SDS011;10216;42.658;23.248;2023-04-03T14:31:06;1.20;;;1.20;;
20110;SDS011;10216;42.658;23.248;2023-04-03T14:33:32;1.60;;;1.50;;
20110;SDS011;10216;42.658;23.248;2023-04-03T14:36:00;3.67;;;1.73;;
20110;SDS011;10216;42.658;23.248;2023-04-03T14:38:26;2.70;;;2.10;;
20110;SDS011;10216;42.658;23.248;2023-04-03T14:40:52;3.63;;;2.63;;
20110;SDS011;10216;42.658;23.248;2023-04-03T14:43:17;1.50;;;1.30;;
20110;SDS011;10216;42.658;23.248;2023-04-03T14:45:47;2.97;;;1.57;;
20110;SDS011;10216;42.658;23.248;2023-04-03T14:48:15;0.97;;;0.93;;
20110;SDS011;10216;42.658;23.248;2023-04-03T14:50:41;1.80;;;1.43;;
20110;SDS011;10216;42.658;23.248;2023-04-03T14:53:07;0.70;;;0.70;;
20110;SDS011;10216;42.658;23.248;2023-04-03T14:55:32;2.00;;;1.40;;
20110;SDS011;10216;42.658;23.248;2023-04-03T14:57:57;2.23;;;2.03;;
20110;SDS011;10216;42.658;23.248;2023-04-03T15:00:23;3.07;;;2.37;;
20110;SDS011;10216;42.658;23.248;2023-04-03T15:02:48;2.87;;;2.20;;
20110;SDS011;10216;42.658;23.248;2023-04-03T15:05:14;2.50;;;2.30;;
20110;SDS011;10216;42.658;23.248;2023-04-03T15:07:40;3.40;;;2.10;;
20110;SDS011;10216;42.658;23.248;2023-04-03T15:10:14;2.33;;;1.93;;
20110;SDS011;10216;42.658;23.248;2023-04-03T15:12:39;1.60;;;1.50;;
20110;SDS011;10216;42.658;23.248;2023-04-03T15:15:05;1.50;;;1.40;;
20110;SDS011;10216;42.658;23.248;2023-04-03T15:17:30;3.40;;;1.77;;
20110;SDS011;10216;42.658;23.248;2023-04-03T15:19:56;0.90;;;0.90;;
20110;SDS011;10216;42.658;23.248;2023-04-03T15:22:21;0.77;;;0.77;;
20110;SDS011;10216;42.658;23.248;2023-04-03T15:24:46;1.40;;;0.93;;
20110;SDS011;10216;42.658;23.248;2023-04-03T15:27:13;2.80;;;1.63;;
20110;SDS011;10216;42.658;23.248;2023-04-03T15:29:38;4.17;;;1.93;;
20110;SDS011;10216;42.658;23.248;2023-04-03T15:32:04;2.77;;;1.83;;
20110;SDS011;10216;42.658;23.248;2023-04-03T15:34:30;2.50;;;1.43;;
20110;SDS011;10216;42.658;23.248;2023-04-03T15:36:56;2.70;;;1.53;;
20110;SDS011;10216;42.658;23.248;2023-04-03T15:39:21;3.47;;;1.77;;
20110;SDS011;10216;42.658;23.248;2023-04-03T15:41:47;1.87;;;1.77;;
20110;SDS011;10216;42.658;23.248;2023-04-03T15:44:13;2.30;;;2.07;;
20110;SDS011;10216;42.658;23.248;2023-04-03T15:46:38;2.93;;;1.60;;
20110;SDS011;10216;42.658;23.248;2023-04-03T15:49:04;1.07;;;0.90;;
20110;SDS011;10216;42.658;23.248;2023-04-03T15:51:30;1.63;;;1.53;;
20110;SDS011;10216;42.658;23.248;2023-04-03T15:53:55;1.13;;;1.10;;
20110;SDS011;10216;42.658;23.248;2023-04-03T15:56:20;1.20;;;1.10;;
20110;SDS011;10216;42.658;23.248;2023-04-03T15:58:46;1.33;;;1.00;;
20110;SDS011;10216;42.658;23.248;2023-04-03T16:01:11;1.57;;;1.47;;
20110;SDS011;10216;42.658;23.248;2023-04-03T16:03:36;1.70;;;1.60;;
20110;SDS011;10216;42.658;23.248;2023-04-03T16:06:03;1.53;;;1.27;;